sensor_id;sensor_type;location;lat;lon;timestamp;P1;durP1;ratioP1;P2;durP2;ratioP2
26710;SDS011;18311;52.754;18.118;2022-12-07T00:00:25;6.62;;;4.83;;
26710;SDS011;18311;52.754;18.118;2022-12-07T00:02:59;7.45;;;5.83;;
26710;SDS011;18311;52.754;18.118;2022-12-07T00:05:29;8.63;;;5.75;;
26710;SDS011;18311;52.754;18.118;2022-12-07T00:07:59;8.30;;;5.80;;
26710;SDS011;18311;52.754;18.118;2022-12-07T00:10:30;8.03;;;6.42;;
26710;SDS011;18311;52.754;18.118;2022-12-07T00:13:06;9.10;;;6.42;;
26710;SDS011;18311;52.754;18.118;2022-12-07T00:15:36;8.85;;;6.65;;
26710;SDS011;18311;52.754;18.118;2022-12-07T00:18:07;7.03;;;6.17;;
26710;SDS011;18311;52.754;18.118;2022-12-07T00:20:38;9.48;;;6.50;;
26710;SDS011;18311;52.754;18.118;2022-12-07T00:23:08;8.38;;;6.45;;
26710;SDS011;18311;52.754;18.118;2022-12-07T00:25:39;9.65;;;6.70;;
26710;SDS011;18311;52.754;18.118;2022-12-07T00:28:09;7.90;;;6.60;;
26710;SDS011;18311;52.754;18.118;2022-12-07T00:30:39;10.78;;;7.17;;
26710;SDS011;18311;52.754;18.118;2022-12-07T00:33:10;8.40;;;6.97;;
26710;SDS011;18311;52.754;18.118;2022-12-07T00:35:40;8.00;;;6.80;;
26710;SDS011;18311;52.754;18.118;2022-12-07T00:38:11;9.15;;;6.70;;
26710;SDS011;18311;52.754;18.118;2022-12-07T00:40:41;10.50;;;7.12;;
26710;SDS011;18311;52.754;18.118;2022-12-07T00:43:11;8.93;;;6.83;;
26710;SDS011;18311;52.754;18.118;2022-12-07T00:45:41;9.50;;;6.90;;
26710;SDS011;18311;52.754;18.118;2022-12-07T00:48:13;9.38;;;7.22;;
26710;SDS011;18311;52.754;18.118;2022-12-07T00:50:43;8.63;;;6.92;;
26710;SDS011;18311;52.754;18.118;2022-12-07T00:53:14;7.35;;;5.78;;
26710;SDS011;18311;52.754;18.118;2022-12-07T00:55:45;8.35;;;5.72;;
26710;SDS011;18311;52.754;18.118;2022-12-07T00:58:16;7.50;;;5.85;;
26710;SDS011;18311;52.754;18.118;2022-12-07T01:00:47;7.60;;;5.87;;
26710;SDS011;18311;52.754;18.118;2022-12-07T01:03:17;7.40;;;5.65;;
26710;SDS011;18311;52.754;18.118;2022-12-07T01:05:51;8.15;;;5.65;;
26710;SDS011;18311;52.754;18.118;2022-12-07T01:08:23;8.45;;;6.00;;
26710;SDS011;18311;52.754;18.118;2022-12-07T01:11:03;7.00;;;5.50;;
26710;SDS011;18311;52.754;18.118;2022-12-07T01:13:34;7.20;;;5.72;;
26710;SDS011;18311;52.754;18.118;2022-12-07T01:16:05;7.70;;;5.65;;
26710;SDS011;18311;52.754;18.118;2022-12-07T01:18:36;7.12;;;5.42;;
26710;SDS011;18311;52.754;18.118;2022-12-07T01:21:11;7.47;;;5.15;;
26710;SDS011;18311;52.754;18.118;2022-12-07T01:23:44;6.67;;;5.22;;
26710;SDS011;18311;52.754;18.118;2022-12-07T01:26:15;6.67;;;5.60;;
26710;SDS011;18311;52.754;18.118;2022-12-07T01:28:48;5.58;;;4.80;;
26710;SDS011;18311;52.754;18.118;2022-12-07T01:31:19;6.17;;;4.80;;
26710;SDS011;18311;52.754;18.118;2022-12-07T01:33:53;5.20;;;4.37;;
26710;SDS011;18311;52.754;18.118;2022-12-07T01:36:25;5.72;;;3.85;;
26710;SDS011;18311;52.754;18.118;2022-12-07T01:38:58;6.42;;;4.15;;
26710;SDS011;18311;52.754;18.118;2022-12-07T01:41:32;7.28;;;4.15;;
26710;SDS011;18311;52.754;18.118;2022-12-07T01:46:44;5.60;;;4.22;;
26710;SDS011;18311;52.754;18.118;2022-12-07T01:49:23;5.42;;;3.80;;
26710;SDS011;18311;52.754;18.118;2022-12-07T01:51:57;4.55;;;3.60;;
26710;SDS011;18311;52.754;18.118;2022-12-07T01:54:36;4.20;;;3.77;;
26710;SDS011;18311;52.754;18.118;2022-12-07T01:57:07;3.87;;;3.05;;
26710;SDS011;18311;52.754;18.118;2022-12-07T01:59:38;5.40;;;3.45;;
26710;SDS011;18311;52.754;18.118;2022-12-07T02:02:12;4.42;;;3.25;;
26710;SDS011;18311;52.754;18.118;2022-12-07T02:04:44;4.53;;;3.10;;
26710;SDS011;18311;52.754;18.118;2022-12-07T02:07:15;4.12;;;3.45;;
26710;SDS011;18311;52.754;18.118;2022-12-07T02:09:46;4.30;;;3.35;;
26710;SDS011;18311;52.754;18.118;2022-12-07T02:12:17;3.90;;;3.27;;
26710;SDS011;18311;52.754;18.118;2022-12-07T02:14:49;4.75;;;3.83;;
26710;SDS011;18311;52.754;18.118;2022-12-07T02:17:22;4.80;;;3.30;;
26710;SDS011;18311;52.754;18.118;2022-12-07T02:20:03;5.30;;;4.20;;
26710;SDS011;18311;52.754;18.118;2022-12-07T02:31:10;7.97;;;5.92;;
26710;SDS011;18311;52.754;18.118;2022-12-07T02:34:05;9.35;;;6.90;;
26710;SDS011;18311;52.754;18.118;2022-12-07T02:36:17;9.68;;;7.15;;
26710;SDS011;18311;52.754;18.118;2022-12-07T02:41:42;11.30;;;8.63;;
26710;SDS011;18311;52.754;18.118;2022-12-07T02:44:15;11.53;;;8.75;;
26710;SDS011;18311;52.754;18.118;2022-12-07T02:46:52;11.68;;;8.60;;
26710;SDS011;18311;52.754;18.118;2022-12-07T02:49:28;12.73;;;9.63;;
26710;SDS011;18311;52.754;18.118;2022-12-07T02:51:59;12.58;;;10.28;;
26710;SDS011;18311;52.754;18.118;2022-12-07T02:54:30;13.18;;;9.65;;
26710;SDS011;18311;52.754;18.118;2022-12-07T03:05:20;13.88;;;10.15;;
26710;SDS011;18311;52.754;18.118;2022-12-07T03:11:02;13.10;;;10.58;;
26710;SDS011;18311;52.754;18.118;2022-12-07T03:16:39;11.00;;;9.25;;
26710;SDS011;18311;52.754;18.118;2022-12-07T03:19:15;11.05;;;8.73;;
26710;SDS011;18311;52.754;18.118;2022-12-07T03:21:49;12.30;;;8.78;;
26710;SDS011;18311;52.754;18.118;2022-12-07T03:24:21;8.95;;;7.85;;
26710;SDS011;18311;52.754;18.118;2022-12-07T03:27:04;9.58;;;7.85;;
26710;SDS011;18311;52.754;18.118;2022-12-07T03:29:42;11.08;;;9.10;;
26710;SDS011;18311;52.754;18.118;2022-12-07T03:32:20;10.93;;;8.58;;
26710;SDS011;18311;52.754;18.118;2022-12-07T03:34:57;10.85;;;9.10;;
26710;SDS011;18311;52.754;18.118;2022-12-07T03:37:32;12.75;;;8.58;;
26710;SDS011;18311;52.754;18.118;2022-12-07T03:40:10;13.85;;;8.73;;
26710;SDS011;18311;52.754;18.118;2022-12-07T03:42:51;13.65;;;9.43;;
26710;SDS011;18311;52.754;18.118;2022-12-07T03:45:23;11.70;;;9.83;;
26710;SDS011;18311;52.754;18.118;2022-12-07T03:48:04;10.58;;;8.55;;
26710;SDS011;18311;52.754;18.118;2022-12-07T03:50:40;10.82;;;8.90;;
26710;SDS011;18311;52.754;18.118;2022-12-07T03:53:29;10.43;;;9.25;;
26710;SDS011;18311;52.754;18.118;2022-12-07T03:55:59;10.68;;;8.25;;
26710;SDS011;18311;52.754;18.118;2022-12-07T03:58:31;8.68;;;7.60;;
26710;SDS011;18311;52.754;18.118;2022-12-07T04:01:03;7.87;;;7.08;;
26710;SDS011;18311;52.754;18.118;2022-12-07T04:03:33;10.40;;;8.10;;
26710;SDS011;18311;52.754;18.118;2022-12-07T04:06:04;9.18;;;7.58;;
26710;SDS011;18311;52.754;18.118;2022-12-07T04:08:34;9.20;;;6.85;;
26710;SDS011;18311;52.754;18.118;2022-12-07T04:11:06;9.73;;;6.95;;
26710;SDS011;18311;52.754;18.118;2022-12-07T04:13:36;7.65;;;6.17;;
26710;SDS011;18311;52.754;18.118;2022-12-07T04:16:25;8.03;;;6.08;;
26710;SDS011;18311;52.754;18.118;2022-12-07T04:18:55;8.40;;;6.28;;
26710;SDS011;18311;52.754;18.118;2022-12-07T04:21:26;7.72;;;6.20;;
26710;SDS011;18311;52.754;18.118;2022-12-07T04:23:56;9.18;;;6.30;;
26710;SDS011;18311;52.754;18.118;2022-12-07T04:26:27;8.50;;;6.20;;
26710;SDS011;18311;52.754;18.118;2022-12-07T04:28:57;7.97;;;6.33;;
26710;SDS011;18311;52.754;18.118;2022-12-07T04:31:29;8.98;;;6.28;;
26710;SDS011;18311;52.754;18.118;2022-12-07T04:34:00;8.18;;;6.03;;
26710;SDS011;18311;52.754;18.118;2022-12-07T04:36:31;8.23;;;6.08;;
26710;SDS011;18311;52.754;18.118;2022-12-07T04:39:02;8.03;;;6.33;;
26710;SDS011;18311;52.754;18.118;2022-12-07T04:41:34;10.60;;;6.33;;
26710;SDS011;18311;52.754;18.118;2022-12-07T04:44:05;11.30;;;7.42;;
26710;SDS011;18311;52.754;18.118;2022-12-07T04:46:35;11.55;;;6.53;;
26710;SDS011;18311;52.754;18.118;2022-12-07T04:49:06;11.22;;;6.62;;
26710;SDS011;18311;52.754;18.118;2022-12-07T04:51:36;9.70;;;6.33;;
26710;SDS011;18311;52.754;18.118;2022-12-07T04:54:08;10.05;;;6.53;;
26710;SDS011;18311;52.754;18.118;2022-12-07T04:56:38;11.97;;;7.05;;
26710;SDS011;18311;52.754;18.118;2022-12-07T04:59:10;11.18;;;7.50;;
26710;SDS011;18311;52.754;18.118;2022-12-07T05:01:41;11.38;;;7.17;;
26710;SDS011;18311;52.754;18.118;2022-12-07T05:04:12;12.75;;;8.43;;
26710;SDS011;18311;52.754;18.118;2022-12-07T05:06:44;11.53;;;7.75;;
26710;SDS011;18311;52.754;18.118;2022-12-07T05:09:14;14.20;;;8.43;;
26710;SDS011;18311;52.754;18.118;2022-12-07T05:11:45;14.65;;;8.30;;
26710;SDS011;18311;52.754;18.118;2022-12-07T05:14:19;13.78;;;7.87;;
26710;SDS011;18311;52.754;18.118;2022-12-07T05:16:50;12.73;;;7.58;;
26710;SDS011;18311;52.754;18.118;2022-12-07T05:19:22;13.62;;;8.18;;
26710;SDS011;18311;52.754;18.118;2022-12-07T05:21:52;13.25;;;7.67;;
26710;SDS011;18311;52.754;18.118;2022-12-07T05:24:22;12.20;;;7.62;;
26710;SDS011;18311;52.754;18.118;2022-12-07T05:26:53;13.32;;;7.50;;
26710;SDS011;18311;52.754;18.118;2022-12-07T05:29:23;14.33;;;7.72;;
26710;SDS011;18311;52.754;18.118;2022-12-07T05:31:53;14.65;;;8.45;;
26710;SDS011;18311;52.754;18.118;2022-12-07T05:34:24;14.45;;;8.28;;
26710;SDS011;18311;52.754;18.118;2022-12-07T05:36:54;15.08;;;8.33;;
26710;SDS011;18311;52.754;18.118;2022-12-07T05:39:25;15.75;;;9.18;;
26710;SDS011;18311;52.754;18.118;2022-12-07T05:41:55;17.90;;;9.15;;
26710;SDS011;18311;52.754;18.118;2022-12-07T05:44:41;16.00;;;8.70;;
26710;SDS011;18311;52.754;18.118;2022-12-07T05:47:14;14.70;;;7.83;;
26710;SDS011;18311;52.754;18.118;2022-12-07T05:49:44;14.25;;;8.05;;
26710;SDS011;18311;52.754;18.118;2022-12-07T05:52:15;15.25;;;9.30;;
26710;SDS011;18311;52.754;18.118;2022-12-07T05:54:45;14.45;;;7.90;;
26710;SDS011;18311;52.754;18.118;2022-12-07T05:57:17;13.88;;;7.83;;
26710;SDS011;18311;52.754;18.118;2022-12-07T05:59:48;13.08;;;7.87;;
26710;SDS011;18311;52.754;18.118;2022-12-07T06:02:18;14.63;;;7.97;;
26710;SDS011;18311;52.754;18.118;2022-12-07T06:04:48;11.10;;;7.75;;
26710;SDS011;18311;52.754;18.118;2022-12-07T06:07:19;10.10;;;6.85;;
26710;SDS011;18311;52.754;18.118;2022-12-07T06:09:50;11.70;;;7.00;;
26710;SDS011;18311;52.754;18.118;2022-12-07T06:12:20;11.45;;;6.65;;
26710;SDS011;18311;52.754;18.118;2022-12-07T06:15:05;11.65;;;7.00;;
26710;SDS011;18311;52.754;18.118;2022-12-07T06:17:36;12.35;;;7.33;;
26710;SDS011;18311;52.754;18.118;2022-12-07T06:20:08;11.03;;;6.85;;
26710;SDS011;18311;52.754;18.118;2022-12-07T06:22:39;10.28;;;7.10;;
26710;SDS011;18311;52.754;18.118;2022-12-07T06:25:10;11.43;;;7.28;;
26710;SDS011;18311;52.754;18.118;2022-12-07T06:27:40;12.00;;;7.50;;
26710;SDS011;18311;52.754;18.118;2022-12-07T06:30:10;11.63;;;7.92;;
26710;SDS011;18311;52.754;18.118;2022-12-07T06:32:41;10.18;;;7.67;;
26710;SDS011;18311;52.754;18.118;2022-12-07T06:35:11;12.43;;;8.38;;
26710;SDS011;18311;52.754;18.118;2022-12-07T06:37:41;11.85;;;8.45;;
26710;SDS011;18311;52.754;18.118;2022-12-07T06:40:13;12.13;;;8.20;;
26710;SDS011;18311;52.754;18.118;2022-12-07T06:42:44;11.22;;;9.25;;
26710;SDS011;18311;52.754;18.118;2022-12-07T06:45:14;10.65;;;8.83;;
26710;SDS011;18311;52.754;18.118;2022-12-07T06:47:46;10.58;;;8.43;;
26710;SDS011;18311;52.754;18.118;2022-12-07T06:50:16;9.55;;;8.55;;
26710;SDS011;18311;52.754;18.118;2022-12-07T06:52:46;11.25;;;9.35;;
26710;SDS011;18311;52.754;18.118;2022-12-07T06:55:17;11.10;;;8.68;;
26710;SDS011;18311;52.754;18.118;2022-12-07T06:57:47;11.28;;;8.95;;
26710;SDS011;18311;52.754;18.118;2022-12-07T07:00:19;10.28;;;8.53;;
26710;SDS011;18311;52.754;18.118;2022-12-07T07:02:49;9.98;;;8.13;;
26710;SDS011;18311;52.754;18.118;2022-12-07T07:05:20;11.28;;;8.20;;
26710;SDS011;18311;52.754;18.118;2022-12-07T07:07:51;9.55;;;7.85;;
26710;SDS011;18311;52.754;18.118;2022-12-07T07:10:23;9.00;;;7.17;;
26710;SDS011;18311;52.754;18.118;2022-12-07T07:12:53;9.63;;;7.37;;
26710;SDS011;18311;52.754;18.118;2022-12-07T07:15:25;10.00;;;7.97;;
26710;SDS011;18311;52.754;18.118;2022-12-07T07:17:55;8.98;;;7.67;;
26710;SDS011;18311;52.754;18.118;2022-12-07T07:20:27;10.30;;;7.80;;
26710;SDS011;18311;52.754;18.118;2022-12-07T07:22:57;8.25;;;6.70;;
26710;SDS011;18311;52.754;18.118;2022-12-07T07:25:29;12.47;;;7.10;;
26710;SDS011;18311;52.754;18.118;2022-12-07T07:28:00;8.65;;;7.25;;
26710;SDS011;18311;52.754;18.118;2022-12-07T07:30:31;7.60;;;6.80;;
26710;SDS011;18311;52.754;18.118;2022-12-07T07:33:02;7.75;;;6.95;;
26710;SDS011;18311;52.754;18.118;2022-12-07T07:35:33;7.40;;;6.35;;
26710;SDS011;18311;52.754;18.118;2022-12-07T07:38:05;9.03;;;6.60;;
26710;SDS011;18311;52.754;18.118;2022-12-07T07:40:36;7.67;;;6.65;;
26710;SDS011;18311;52.754;18.118;2022-12-07T07:43:06;9.80;;;7.08;;
26710;SDS011;18311;52.754;18.118;2022-12-07T07:45:37;7.80;;;7.03;;
26710;SDS011;18311;52.754;18.118;2022-12-07T07:48:07;7.58;;;6.67;;
26710;SDS011;18311;52.754;18.118;2022-12-07T07:50:38;9.30;;;7.67;;
26710;SDS011;18311;52.754;18.118;2022-12-07T07:53:08;8.38;;;7.28;;
26710;SDS011;18311;52.754;18.118;2022-12-07T07:55:38;8.78;;;7.03;;
26710;SDS011;18311;52.754;18.118;2022-12-07T07:58:10;8.90;;;7.58;;
26710;SDS011;18311;52.754;18.118;2022-12-07T08:00:41;8.65;;;7.03;;
26710;SDS011;18311;52.754;18.118;2022-12-07T08:03:11;8.93;;;7.83;;
26710;SDS011;18311;52.754;18.118;2022-12-07T08:05:41;7.40;;;6.58;;
26710;SDS011;18311;52.754;18.118;2022-12-07T08:08:12;7.58;;;6.80;;
26710;SDS011;18311;52.754;18.118;2022-12-07T08:10:43;7.35;;;6.40;;
26710;SDS011;18311;52.754;18.118;2022-12-07T08:13:19;7.37;;;6.58;;
26710;SDS011;18311;52.754;18.118;2022-12-07T08:15:46;8.65;;;6.37;;
26710;SDS011;18311;52.754;18.118;2022-12-07T08:18:17;7.35;;;6.05;;
26710;SDS011;18311;52.754;18.118;2022-12-07T08:20:48;6.72;;;6.03;;
26710;SDS011;18311;52.754;18.118;2022-12-07T08:23:18;7.58;;;6.78;;
26710;SDS011;18311;52.754;18.118;2022-12-07T08:25:50;8.38;;;6.80;;
26710;SDS011;18311;52.754;18.118;2022-12-07T08:28:21;7.65;;;6.50;;
26710;SDS011;18311;52.754;18.118;2022-12-07T08:30:51;7.30;;;6.55;;
26710;SDS011;18311;52.754;18.118;2022-12-07T08:33:21;7.22;;;6.47;;
26710;SDS011;18311;52.754;18.118;2022-12-07T08:35:52;7.35;;;6.58;;
26710;SDS011;18311;52.754;18.118;2022-12-07T08:38:22;7.12;;;6.37;;
26710;SDS011;18311;52.754;18.118;2022-12-07T08:40:56;7.90;;;7.10;;
26710;SDS011;18311;52.754;18.118;2022-12-07T08:43:28;8.80;;;6.92;;
26710;SDS011;18311;52.754;18.118;2022-12-07T08:46:03;9.25;;;7.47;;
26710;SDS011;18311;52.754;18.118;2022-12-07T08:49:11;8.73;;;7.03;;
26710;SDS011;18311;52.754;18.118;2022-12-07T08:51:48;8.05;;;7.00;;
26710;SDS011;18311;52.754;18.118;2022-12-07T08:54:19;8.73;;;6.97;;
26710;SDS011;18311;52.754;18.118;2022-12-07T08:56:50;8.68;;;7.05;;
26710;SDS011;18311;52.754;18.118;2022-12-07T08:59:24;8.28;;;7.10;;
26710;SDS011;18311;52.754;18.118;2022-12-07T09:01:56;7.67;;;6.60;;
26710;SDS011;18311;52.754;18.118;2022-12-07T09:04:26;8.00;;;7.20;;
26710;SDS011;18311;52.754;18.118;2022-12-07T09:06:56;8.25;;;7.15;;
26710;SDS011;18311;52.754;18.118;2022-12-07T09:09:28;7.78;;;6.97;;
26710;SDS011;18311;52.754;18.118;2022-12-07T09:11:58;8.13;;;6.90;;
26710;SDS011;18311;52.754;18.118;2022-12-07T09:14:30;10.30;;;7.65;;
26710;SDS011;18311;52.754;18.118;2022-12-07T09:17:05;8.38;;;7.22;;
26710;SDS011;18311;52.754;18.118;2022-12-07T09:19:38;7.75;;;6.67;;
26710;SDS011;18311;52.754;18.118;2022-12-07T09:22:10;6.80;;;6.10;;
26710;SDS011;18311;52.754;18.118;2022-12-07T09:24:41;7.60;;;6.80;;
26710;SDS011;18311;52.754;18.118;2022-12-07T09:27:13;7.87;;;7.05;;
26710;SDS011;18311;52.754;18.118;2022-12-07T09:29:45;8.65;;;7.03;;
26710;SDS011;18311;52.754;18.118;2022-12-07T09:32:15;9.75;;;7.90;;
26710;SDS011;18311;52.754;18.118;2022-12-07T09:34:46;8.23;;;7.03;;
26710;SDS011;18311;52.754;18.118;2022-12-07T09:37:16;10.18;;;8.48;;
26710;SDS011;18311;52.754;18.118;2022-12-07T09:39:46;9.20;;;8.00;;
26710;SDS011;18311;52.754;18.118;2022-12-07T09:42:26;10.53;;;8.25;;
26710;SDS011;18311;52.754;18.118;2022-12-07T09:44:58;10.23;;;8.15;;
26710;SDS011;18311;52.754;18.118;2022-12-07T09:47:29;9.93;;;8.10;;
26710;SDS011;18311;52.754;18.118;2022-12-07T09:50:05;10.70;;;8.58;;
26710;SDS011;18311;52.754;18.118;2022-12-07T09:52:38;9.37;;;7.97;;
26710;SDS011;18311;52.754;18.118;2022-12-07T09:55:11;10.55;;;8.20;;
26710;SDS011;18311;52.754;18.118;2022-12-07T09:57:45;10.95;;;8.98;;
26710;SDS011;18311;52.754;18.118;2022-12-07T10:00:16;10.40;;;8.65;;
26710;SDS011;18311;52.754;18.118;2022-12-07T10:02:51;9.83;;;7.65;;
26710;SDS011;18311;52.754;18.118;2022-12-07T10:05:46;8.75;;;7.85;;
26710;SDS011;18311;52.754;18.118;2022-12-07T10:08:14;9.23;;;7.58;;
26710;SDS011;18311;52.754;18.118;2022-12-07T10:10:41;9.40;;;7.85;;
26710;SDS011;18311;52.754;18.118;2022-12-07T10:13:13;8.30;;;7.40;;
26710;SDS011;18311;52.754;18.118;2022-12-07T10:15:52;8.65;;;7.35;;
26710;SDS011;18311;52.754;18.118;2022-12-07T10:18:36;7.37;;;6.53;;
26710;SDS011;18311;52.754;18.118;2022-12-07T10:21:18;8.05;;;6.35;;
26710;SDS011;18311;52.754;18.118;2022-12-07T10:24:01;7.53;;;6.55;;
26710;SDS011;18311;52.754;18.118;2022-12-07T10:26:34;7.22;;;5.75;;
26710;SDS011;18311;52.754;18.118;2022-12-07T10:31:54;7.60;;;6.10;;
26710;SDS011;18311;52.754;18.118;2022-12-07T10:34:32;7.12;;;6.28;;
26710;SDS011;18311;52.754;18.118;2022-12-07T10:39:47;8.15;;;6.65;;
26710;SDS011;18311;52.754;18.118;2022-12-07T10:42:27;8.53;;;7.20;;
26710;SDS011;18311;52.754;18.118;2022-12-07T10:48:03;7.58;;;6.70;;
26710;SDS011;18311;52.754;18.118;2022-12-07T10:56:29;6.65;;;5.92;;
26710;SDS011;18311;52.754;18.118;2022-12-07T11:07:14;7.47;;;6.67;;
26710;SDS011;18311;52.754;18.118;2022-12-07T11:15:41;8.83;;;7.35;;
26710;SDS011;18311;52.754;18.118;2022-12-07T11:23:56;9.88;;;8.15;;
26710;SDS011;18311;52.754;18.118;2022-12-07T11:26:32;12.00;;;9.38;;
26710;SDS011;18311;52.754;18.118;2022-12-07T11:31:57;11.48;;;9.08;;
26710;SDS011;18311;52.754;18.118;2022-12-07T11:37:38;11.70;;;9.30;;
26710;SDS011;18311;52.754;18.118;2022-12-07T11:40:15;14.25;;;10.28;;
26710;SDS011;18311;52.754;18.118;2022-12-07T11:42:49;15.83;;;12.03;;
26710;SDS011;18311;52.754;18.118;2022-12-07T11:45:21;14.40;;;10.63;;
26710;SDS011;18311;52.754;18.118;2022-12-07T11:50:42;12.15;;;10.05;;
26710;SDS011;18311;52.754;18.118;2022-12-07T11:53:22;12.40;;;9.98;;
26710;SDS011;18311;52.754;18.118;2022-12-07T12:06:43;14.20;;;10.82;;
26710;SDS011;18311;52.754;18.118;2022-12-07T12:15:02;10.55;;;9.08;;
26710;SDS011;18311;52.754;18.118;2022-12-07T12:26:18;17.32;;;12.60;;
26710;SDS011;18311;52.754;18.118;2022-12-07T12:29:02;21.02;;;13.72;;
26710;SDS011;18311;52.754;18.118;2022-12-07T12:31:38;25.50;;;16.07;;
26710;SDS011;18311;52.754;18.118;2022-12-07T12:34:32;22.95;;;15.83;;
26710;SDS011;18311;52.754;18.118;2022-12-07T12:37:02;17.80;;;12.60;;
26710;SDS011;18311;52.754;18.118;2022-12-07T12:39:36;16.17;;;11.53;;
26710;SDS011;18311;52.754;18.118;2022-12-07T12:42:09;13.90;;;10.38;;
26710;SDS011;18311;52.754;18.118;2022-12-07T12:44:40;13.08;;;9.90;;
26710;SDS011;18311;52.754;18.118;2022-12-07T12:50:18;13.62;;;9.63;;
26710;SDS011;18311;52.754;18.118;2022-12-07T12:52:53;11.88;;;8.98;;
26710;SDS011;18311;52.754;18.118;2022-12-07T13:04:00;10.95;;;8.40;;
26710;SDS011;18311;52.754;18.118;2022-12-07T13:06:37;9.10;;;7.50;;
26710;SDS011;18311;52.754;18.118;2022-12-07T13:09:15;9.30;;;7.50;;
26710;SDS011;18311;52.754;18.118;2022-12-07T13:11:41;8.78;;;7.15;;
26710;SDS011;18311;52.754;18.118;2022-12-07T13:20:04;8.15;;;7.03;;
26710;SDS011;18311;52.754;18.118;2022-12-07T13:22:43;9.38;;;7.58;;
26710;SDS011;18311;52.754;18.118;2022-12-07T13:25:12;8.28;;;6.95;;
26710;SDS011;18311;52.754;18.118;2022-12-07T13:30:53;8.23;;;7.40;;
26710;SDS011;18311;52.754;18.118;2022-12-07T13:33:29;8.88;;;7.20;;
26710;SDS011;18311;52.754;18.118;2022-12-07T13:35:59;8.68;;;7.70;;
26710;SDS011;18311;52.754;18.118;2022-12-07T13:38:32;8.65;;;7.47;;
26710;SDS011;18311;52.754;18.118;2022-12-07T13:41:11;8.15;;;6.97;;
26710;SDS011;18311;52.754;18.118;2022-12-07T13:43:42;8.38;;;7.03;;
26710;SDS011;18311;52.754;18.118;2022-12-07T13:48:48;9.20;;;7.67;;
26710;SDS011;18311;52.754;18.118;2022-12-07T13:51:28;9.53;;;7.67;;
26710;SDS011;18311;52.754;18.118;2022-12-07T13:54:01;9.03;;;7.70;;
26710;SDS011;18311;52.754;18.118;2022-12-07T13:56:34;9.73;;;8.55;;
26710;SDS011;18311;52.754;18.118;2022-12-07T13:59:10;8.88;;;7.95;;
26710;SDS011;18311;52.754;18.118;2022-12-07T14:01:41;9.70;;;7.62;;
26710;SDS011;18311;52.754;18.118;2022-12-07T14:07:25;8.68;;;7.33;;
26710;SDS011;18311;52.754;18.118;2022-12-07T14:10:03;8.83;;;7.37;;
26710;SDS011;18311;52.754;18.118;2022-12-07T14:12:31;8.55;;;7.15;;
26710;SDS011;18311;52.754;18.118;2022-12-07T14:15:04;9.35;;;7.05;;
26710;SDS011;18311;52.754;18.118;2022-12-07T14:17:35;7.58;;;6.78;;
26710;SDS011;18311;52.754;18.118;2022-12-07T14:20:27;8.25;;;7.00;;
26710;SDS011;18311;52.754;18.118;2022-12-07T14:22:38;8.08;;;6.78;;
26710;SDS011;18311;52.754;18.118;2022-12-07T14:25:19;8.25;;;7.05;;
26710;SDS011;18311;52.754;18.118;2022-12-07T14:27:56;7.62;;;6.72;;
26710;SDS011;18311;52.754;18.118;2022-12-07T14:30:30;8.28;;;7.03;;
26710;SDS011;18311;52.754;18.118;2022-12-07T14:33:03;9.78;;;7.20;;
26710;SDS011;18311;52.754;18.118;2022-12-07T14:35:36;8.15;;;7.22;;
26710;SDS011;18311;52.754;18.118;2022-12-07T14:38:09;7.53;;;6.72;;
26710;SDS011;18311;52.754;18.118;2022-12-07T14:40:40;9.33;;;6.53;;
26710;SDS011;18311;52.754;18.118;2022-12-07T14:43:14;9.85;;;7.47;;
26710;SDS011;18311;52.754;18.118;2022-12-07T14:45:50;8.10;;;7.05;;
26710;SDS011;18311;52.754;18.118;2022-12-07T14:48:23;8.18;;;7.10;;
26710;SDS011;18311;52.754;18.118;2022-12-07T14:50:56;6.83;;;5.95;;
26710;SDS011;18311;52.754;18.118;2022-12-07T14:53:33;7.60;;;6.40;;
26710;SDS011;18311;52.754;18.118;2022-12-07T14:56:15;8.58;;;7.05;;
26710;SDS011;18311;52.754;18.118;2022-12-07T14:58:46;8.10;;;6.78;;
26710;SDS011;18311;52.754;18.118;2022-12-07T15:01:19;7.85;;;6.40;;
26710;SDS011;18311;52.754;18.118;2022-12-07T15:03:53;7.22;;;6.50;;
26710;SDS011;18311;52.754;18.118;2022-12-07T15:06:27;8.53;;;6.80;;
26710;SDS011;18311;52.754;18.118;2022-12-07T15:09:00;7.37;;;6.50;;
26710;SDS011;18311;52.754;18.118;2022-12-07T15:11:33;7.67;;;6.60;;
26710;SDS011;18311;52.754;18.118;2022-12-07T15:14:07;7.05;;;6.33;;
26710;SDS011;18311;52.754;18.118;2022-12-07T15:16:42;7.83;;;6.20;;
26710;SDS011;18311;52.754;18.118;2022-12-07T15:19:19;7.67;;;6.67;;
26710;SDS011;18311;52.754;18.118;2022-12-07T15:21:59;8.78;;;6.83;;
26710;SDS011;18311;52.754;18.118;2022-12-07T15:24:31;8.75;;;6.70;;
26710;SDS011;18311;52.754;18.118;2022-12-07T15:27:04;8.85;;;7.05;;
26710;SDS011;18311;52.754;18.118;2022-12-07T15:29:40;10.35;;;7.45;;
26710;SDS011;18311;52.754;18.118;2022-12-07T15:32:13;8.55;;;6.90;;
26710;SDS011;18311;52.754;18.118;2022-12-07T15:34:49;6.90;;;6.15;;
26710;SDS011;18311;52.754;18.118;2022-12-07T15:37:24;8.30;;;6.55;;
26710;SDS011;18311;52.754;18.118;2022-12-07T15:39:56;8.68;;;6.45;;
26710;SDS011;18311;52.754;18.118;2022-12-07T15:42:31;8.35;;;7.15;;
26710;SDS011;18311;52.754;18.118;2022-12-07T15:45:06;8.00;;;6.50;;
26710;SDS011;18311;52.754;18.118;2022-12-07T15:47:40;9.13;;;6.33;;
26710;SDS011;18311;52.754;18.118;2022-12-07T15:50:18;9.03;;;6.28;;
26710;SDS011;18311;52.754;18.118;2022-12-07T15:52:53;9.48;;;7.40;;
26710;SDS011;18311;52.754;18.118;2022-12-07T15:55:24;7.62;;;6.58;;
26710;SDS011;18311;52.754;18.118;2022-12-07T15:57:56;9.10;;;7.22;;
26710;SDS011;18311;52.754;18.118;2022-12-07T16:00:27;9.73;;;7.70;;
26710;SDS011;18311;52.754;18.118;2022-12-07T16:02:58;8.15;;;7.15;;
26710;SDS011;18311;52.754;18.118;2022-12-07T16:05:32;8.70;;;7.42;;
26710;SDS011;18311;52.754;18.118;2022-12-07T16:08:04;9.85;;;7.62;;
26710;SDS011;18311;52.754;18.118;2022-12-07T16:10:43;8.43;;;7.50;;
26710;SDS011;18311;52.754;18.118;2022-12-07T16:13:15;9.03;;;7.85;;
26710;SDS011;18311;52.754;18.118;2022-12-07T16:15:49;9.50;;;7.72;;
26710;SDS011;18311;52.754;18.118;2022-12-07T16:18:22;8.33;;;7.53;;
26710;SDS011;18311;52.754;18.118;2022-12-07T16:20:55;8.15;;;7.12;;
26710;SDS011;18311;52.754;18.118;2022-12-07T16:23:30;8.50;;;7.40;;
26710;SDS011;18311;52.754;18.118;2022-12-07T16:26:13;8.08;;;7.20;;
26710;SDS011;18311;52.754;18.118;2022-12-07T16:28:51;8.85;;;7.92;;
26710;SDS011;18311;52.754;18.118;2022-12-07T16:31:25;8.75;;;7.22;;
26710;SDS011;18311;52.754;18.118;2022-12-07T16:34:08;8.65;;;7.45;;
26710;SDS011;18311;52.754;18.118;2022-12-07T16:36:41;8.40;;;7.53;;
26710;SDS011;18311;52.754;18.118;2022-12-07T16:39:14;8.00;;;7.20;;
26710;SDS011;18311;52.754;18.118;2022-12-07T16:41:53;8.50;;;7.33;;
26710;SDS011;18311;52.754;18.118;2022-12-07T16:44:26;7.95;;;6.92;;
26710;SDS011;18311;52.754;18.118;2022-12-07T16:46:59;8.30;;;7.03;;
26710;SDS011;18311;52.754;18.118;2022-12-07T16:49:34;8.93;;;7.12;;
26710;SDS011;18311;52.754;18.118;2022-12-07T16:52:07;7.47;;;6.67;;
26710;SDS011;18311;52.754;18.118;2022-12-07T16:57:15;8.95;;;7.22;;
26710;SDS011;18311;52.754;18.118;2022-12-07T16:59:48;9.65;;;7.90;;
26710;SDS011;18311;52.754;18.118;2022-12-07T17:02:22;10.00;;;7.22;;
26710;SDS011;18311;52.754;18.118;2022-12-07T17:04:52;8.23;;;6.87;;
26710;SDS011;18311;52.754;18.118;2022-12-07T17:07:22;7.42;;;5.92;;
26710;SDS011;18311;52.754;18.118;2022-12-07T17:09:53;7.90;;;6.15;;